sensor_id;sensor_type;location;lat;lon;timestamp;P1;durP1;ratioP1;P2;durP2;ratioP2
16478;SDS011;8350;52.316;10.530;2022-12-18T00:00:48;20.67;;;15.88;;
16478;SDS011;8350;52.316;10.530;2022-12-18T00:03:15;24.40;;;17.95;;
16478;SDS011;8350;52.316;10.530;2022-12-18T00:05:48;25.80;;;18.27;;
16478;SDS011;8350;52.316;10.530;2022-12-18T00:08:15;24.90;;;17.98;;
16478;SDS011;8350;52.316;10.530;2022-12-18T00:10:43;21.92;;;16.27;;
16478;SDS011;8350;52.316;10.530;2022-12-18T00:13:10;21.80;;;15.85;;
16478;SDS011;8350;52.316;10.530;2022-12-18T00:15:39;26.17;;;18.40;;
16478;SDS011;8350;52.316;10.530;2022-12-18T00:18:06;23.55;;;16.98;;
16478;SDS011;8350;52.316;10.530;2022-12-18T00:20:35;24.80;;;16.60;;
16478;SDS011;8350;52.316;10.530;2022-12-18T00:23:03;24.45;;;17.25;;
16478;SDS011;8350;52.316;10.530;2022-12-18T00:25:32;23.08;;;17.48;;
16478;SDS011;8350;52.316;10.530;2022-12-18T00:28:00;26.48;;;16.08;;
16478;SDS011;8350;52.316;10.530;2022-12-18T00:30:27;27.02;;;17.27;;
16478;SDS011;8350;52.316;10.530;2022-12-18T00:32:56;26.67;;;18.35;;
16478;SDS011;8350;52.316;10.530;2022-12-18T00:35:23;23.52;;;16.90;;
16478;SDS011;8350;52.316;10.530;2022-12-18T00:37:50;22.73;;;16.27;;
16478;SDS011;8350;52.316;10.530;2022-12-18T00:40:17;25.90;;;15.50;;
16478;SDS011;8350;52.316;10.530;2022-12-18T00:42:44;24.10;;;16.48;;
16478;SDS011;8350;52.316;10.530;2022-12-18T00:45:31;23.65;;;15.63;;
16478;SDS011;8350;52.316;10.530;2022-12-18T00:47:59;25.20;;;17.77;;
16478;SDS011;8350;52.316;10.530;2022-12-18T00:50:26;19.65;;;14.77;;
16478;SDS011;8350;52.316;10.530;2022-12-18T00:52:53;23.00;;;15.00;;
16478;SDS011;8350;52.316;10.530;2022-12-18T00:55:20;21.70;;;15.88;;
16478;SDS011;8350;52.316;10.530;2022-12-18T00:57:47;23.58;;;16.45;;
16478;SDS011;8350;52.316;10.530;2022-12-18T01:00:14;19.33;;;14.60;;
16478;SDS011;8350;52.316;10.530;2022-12-18T01:02:42;23.50;;;14.80;;
16478;SDS011;8350;52.316;10.530;2022-12-18T01:05:12;20.63;;;15.18;;
16478;SDS011;8350;52.316;10.530;2022-12-18T01:07:39;20.05;;;15.07;;
16478;SDS011;8350;52.316;10.530;2022-12-18T01:10:07;23.33;;;16.33;;
16478;SDS011;8350;52.316;10.530;2022-12-18T01:12:36;23.23;;;17.20;;
16478;SDS011;8350;52.316;10.530;2022-12-18T01:15:03;28.60;;;17.10;;
16478;SDS011;8350;52.316;10.530;2022-12-18T01:17:31;19.92;;;15.38;;
16478;SDS011;8350;52.316;10.530;2022-12-18T01:20:00;26.10;;;16.05;;
16478;SDS011;8350;52.316;10.530;2022-12-18T01:22:29;22.33;;;15.65;;
16478;SDS011;8350;52.316;10.530;2022-12-18T01:24:58;23.20;;;16.17;;
16478;SDS011;8350;52.316;10.530;2022-12-18T01:27:25;21.95;;;15.20;;
16478;SDS011;8350;52.316;10.530;2022-12-18T01:29:52;20.85;;;15.15;;
16478;SDS011;8350;52.316;10.530;2022-12-18T01:32:20;19.38;;;14.93;;
16478;SDS011;8350;52.316;10.530;2022-12-18T01:34:47;20.77;;;14.88;;
16478;SDS011;8350;52.316;10.530;2022-12-18T01:37:14;22.30;;;15.75;;
16478;SDS011;8350;52.316;10.530;2022-12-18T01:39:42;21.90;;;15.65;;
16478;SDS011;8350;52.316;10.530;2022-12-18T01:42:10;22.65;;;15.85;;
16478;SDS011;8350;52.316;10.530;2022-12-18T01:44:50;22.88;;;15.77;;
16478;SDS011;8350;52.316;10.530;2022-12-18T01:47:31;22.83;;;15.75;;
16478;SDS011;8350;52.316;10.530;2022-12-18T01:50:02;22.50;;;14.93;;
16478;SDS011;8350;52.316;10.530;2022-12-18T01:52:32;25.50;;;14.75;;
16478;SDS011;8350;52.316;10.530;2022-12-18T01:55:02;19.10;;;14.63;;
16478;SDS011;8350;52.316;10.530;2022-12-18T01:57:31;21.65;;;15.88;;
16478;SDS011;8350;52.316;10.530;2022-12-18T02:00:00;19.40;;;14.77;;
16478;SDS011;8350;52.316;10.530;2022-12-18T02:02:30;21.90;;;15.10;;
16478;SDS011;8350;52.316;10.530;2022-12-18T02:04:57;22.10;;;15.32;;
16478;SDS011;8350;52.316;10.530;2022-12-18T02:07:26;19.58;;;14.60;;
16478;SDS011;8350;52.316;10.530;2022-12-18T02:09:59;20.58;;;14.73;;
16478;SDS011;8350;52.316;10.530;2022-12-18T02:12:33;24.77;;;17.00;;
16478;SDS011;8350;52.316;10.530;2022-12-18T02:15:09;22.48;;;14.93;;
16478;SDS011;8350;52.316;10.530;2022-12-18T02:17:43;23.40;;;15.25;;
16478;SDS011;8350;52.316;10.530;2022-12-18T02:20:16;27.40;;;16.00;;
16478;SDS011;8350;52.316;10.530;2022-12-18T02:22:55;23.25;;;16.27;;
16478;SDS011;8350;52.316;10.530;2022-12-18T02:28:35;20.73;;;14.90;;
16478;SDS011;8350;52.316;10.530;2022-12-18T02:31:06;25.02;;;16.65;;
16478;SDS011;8350;52.316;10.530;2022-12-18T02:33:37;25.20;;;15.50;;
16478;SDS011;8350;52.316;10.530;2022-12-18T02:36:06;24.65;;;17.08;;
16478;SDS011;8350;52.316;10.530;2022-12-18T02:38:34;19.67;;;14.70;;
16478;SDS011;8350;52.316;10.530;2022-12-18T02:41:02;24.92;;;17.40;;
16478;SDS011;8350;52.316;10.530;2022-12-18T02:43:31;24.23;;;15.93;;
16478;SDS011;8350;52.316;10.530;2022-12-18T02:45:59;21.23;;;15.18;;
16478;SDS011;8350;52.316;10.530;2022-12-18T02:48:29;20.70;;;14.73;;
16478;SDS011;8350;52.316;10.530;2022-12-18T02:51:02;25.75;;;16.55;;
16478;SDS011;8350;52.316;10.530;2022-12-18T02:53:36;22.05;;;15.90;;
16478;SDS011;8350;52.316;10.530;2022-12-18T02:56:09;25.20;;;16.25;;
16478;SDS011;8350;52.316;10.530;2022-12-18T02:58:43;27.27;;;16.70;;
16478;SDS011;8350;52.316;10.530;2022-12-18T03:01:15;24.52;;;15.10;;
16478;SDS011;8350;52.316;10.530;2022-12-18T03:03:49;24.83;;;15.10;;
16478;SDS011;8350;52.316;10.530;2022-12-18T03:06:23;23.77;;;15.60;;
16478;SDS011;8350;52.316;10.530;2022-12-18T03:08:54;26.23;;;15.50;;
16478;SDS011;8350;52.316;10.530;2022-12-18T03:11:25;22.25;;;15.80;;
16478;SDS011;8350;52.316;10.530;2022-12-18T03:14:17;23.88;;;16.35;;
16478;SDS011;8350;52.316;10.530;2022-12-18T03:16:47;22.23;;;15.70;;
16478;SDS011;8350;52.316;10.530;2022-12-18T03:19:19;25.30;;;17.08;;
16478;SDS011;8350;52.316;10.530;2022-12-18T03:21:49;21.63;;;13.98;;
16478;SDS011;8350;52.316;10.530;2022-12-18T03:24:21;21.00;;;15.38;;
16478;SDS011;8350;52.316;10.530;2022-12-18T03:26:51;22.95;;;15.80;;
16478;SDS011;8350;52.316;10.530;2022-12-18T03:29:22;24.63;;;16.83;;
16478;SDS011;8350;52.316;10.530;2022-12-18T03:31:55;24.02;;;16.25;;
16478;SDS011;8350;52.316;10.530;2022-12-18T03:34:29;24.73;;;15.65;;
16478;SDS011;8350;52.316;10.530;2022-12-18T03:36:58;24.50;;;16.67;;
16478;SDS011;8350;52.316;10.530;2022-12-18T03:39:28;25.30;;;15.68;;
16478;SDS011;8350;52.316;10.530;2022-12-18T03:41:56;23.75;;;17.77;;
16478;SDS011;8350;52.316;10.530;2022-12-18T03:44:31;25.52;;;16.15;;
16478;SDS011;8350;52.316;10.530;2022-12-18T03:47:07;22.10;;;13.80;;
16478;SDS011;8350;52.316;10.530;2022-12-18T03:49:41;22.30;;;16.25;;
16478;SDS011;8350;52.316;10.530;2022-12-18T03:52:15;21.42;;;14.82;;
16478;SDS011;8350;52.316;10.530;2022-12-18T03:54:46;22.00;;;14.40;;
16478;SDS011;8350;52.316;10.530;2022-12-18T03:57:15;25.23;;;16.33;;
16478;SDS011;8350;52.316;10.530;2022-12-18T03:59:47;25.58;;;18.80;;
16478;SDS011;8350;52.316;10.530;2022-12-18T04:02:17;32.30;;;20.02;;
16478;SDS011;8350;52.316;10.530;2022-12-18T04:04:45;26.25;;;19.58;;
16478;SDS011;8350;52.316;10.530;2022-12-18T04:07:14;26.38;;;18.35;;
16478;SDS011;8350;52.316;10.530;2022-12-18T04:09:42;30.20;;;22.20;;
16478;SDS011;8350;52.316;10.530;2022-12-18T04:12:10;28.20;;;20.98;;
16478;SDS011;8350;52.316;10.530;2022-12-18T04:14:37;29.75;;;21.55;;
16478;SDS011;8350;52.316;10.530;2022-12-18T04:17:06;27.60;;;18.77;;
16478;SDS011;8350;52.316;10.530;2022-12-18T04:19:33;28.02;;;20.88;;
16478;SDS011;8350;52.316;10.530;2022-12-18T04:22:00;26.00;;;19.33;;
16478;SDS011;8350;52.316;10.530;2022-12-18T04:24:27;26.17;;;20.38;;
16478;SDS011;8350;52.316;10.530;2022-12-18T04:26:54;24.30;;;20.63;;
16478;SDS011;8350;52.316;10.530;2022-12-18T04:29:22;29.50;;;21.30;;
16478;SDS011;8350;52.316;10.530;2022-12-18T04:31:49;24.67;;;19.35;;
16478;SDS011;8350;52.316;10.530;2022-12-18T04:34:17;26.38;;;19.77;;
16478;SDS011;8350;52.316;10.530;2022-12-18T04:36:44;30.13;;;20.13;;
16478;SDS011;8350;52.316;10.530;2022-12-18T04:39:12;30.00;;;21.02;;
16478;SDS011;8350;52.316;10.530;2022-12-18T04:41:38;27.88;;;19.92;;
16478;SDS011;8350;52.316;10.530;2022-12-18T04:44:06;28.10;;;21.23;;
16478;SDS011;8350;52.316;10.530;2022-12-18T04:46:33;25.83;;;19.88;;
16478;SDS011;8350;52.316;10.530;2022-12-18T04:49:00;26.20;;;19.42;;
16478;SDS011;8350;52.316;10.530;2022-12-18T04:51:28;28.30;;;20.67;;
16478;SDS011;8350;52.316;10.530;2022-12-18T04:53:55;27.00;;;20.13;;
16478;SDS011;8350;52.316;10.530;2022-12-18T04:56:22;26.33;;;19.23;;
16478;SDS011;8350;52.316;10.530;2022-12-18T04:58:52;26.70;;;20.17;;
16478;SDS011;8350;52.316;10.530;2022-12-18T05:01:19;29.05;;;21.00;;
16478;SDS011;8350;52.316;10.530;2022-12-18T05:03:47;27.60;;;20.85;;
16478;SDS011;8350;52.316;10.530;2022-12-18T05:06:14;30.15;;;22.33;;
16478;SDS011;8350;52.316;10.530;2022-12-18T05:08:42;28.50;;;21.83;;
16478;SDS011;8350;52.316;10.530;2022-12-18T05:11:10;26.70;;;19.33;;
16478;SDS011;8350;52.316;10.530;2022-12-18T05:13:41;24.10;;;16.80;;
16478;SDS011;8350;52.316;10.530;2022-12-18T05:16:08;28.70;;;20.58;;
16478;SDS011;8350;52.316;10.530;2022-12-18T05:18:36;31.08;;;21.35;;
16478;SDS011;8350;52.316;10.530;2022-12-18T05:21:03;33.40;;;21.25;;
16478;SDS011;8350;52.316;10.530;2022-12-18T05:23:30;30.63;;;19.50;;
16478;SDS011;8350;52.316;10.530;2022-12-18T05:25:59;26.75;;;20.90;;
16478;SDS011;8350;52.316;10.530;2022-12-18T05:28:29;31.80;;;20.20;;
16478;SDS011;8350;52.316;10.530;2022-12-18T05:30:57;29.20;;;19.77;;
16478;SDS011;8350;52.316;10.530;2022-12-18T05:33:26;30.90;;;22.23;;
16478;SDS011;8350;52.316;10.530;2022-12-18T05:35:56;25.55;;;18.83;;
16478;SDS011;8350;52.316;10.530;2022-12-18T05:38:24;26.20;;;16.45;;
16478;SDS011;8350;52.316;10.530;2022-12-18T05:40:52;23.73;;;15.85;;
16478;SDS011;8350;52.316;10.530;2022-12-18T05:43:21;24.95;;;16.52;;
16478;SDS011;8350;52.316;10.530;2022-12-18T05:45:50;25.10;;;15.95;;
16478;SDS011;8350;52.316;10.530;2022-12-18T05:48:17;23.27;;;15.57;;
16478;SDS011;8350;52.316;10.530;2022-12-18T05:50:45;21.52;;;15.43;;
16478;SDS011;8350;52.316;10.530;2022-12-18T05:53:14;29.23;;;16.70;;
16478;SDS011;8350;52.316;10.530;2022-12-18T05:55:42;22.92;;;16.50;;
16478;SDS011;8350;52.316;10.530;2022-12-18T05:58:10;26.15;;;17.40;;
16478;SDS011;8350;52.316;10.530;2022-12-18T06:00:43;23.65;;;15.15;;
16478;SDS011;8350;52.316;10.530;2022-12-18T06:03:12;23.52;;;14.85;;
16478;SDS011;8350;52.316;10.530;2022-12-18T06:05:40;23.20;;;14.95;;
16478;SDS011;8350;52.316;10.530;2022-12-18T06:08:14;19.48;;;14.35;;
16478;SDS011;8350;52.316;10.530;2022-12-18T06:10:41;21.50;;;14.50;;
16478;SDS011;8350;52.316;10.530;2022-12-18T06:13:16;23.77;;;15.32;;
16478;SDS011;8350;52.316;10.530;2022-12-18T06:15:44;21.33;;;15.90;;
16478;SDS011;8350;52.316;10.530;2022-12-18T06:18:11;22.33;;;16.48;;
16478;SDS011;8350;52.316;10.530;2022-12-18T06:20:38;25.70;;;15.20;;
16478;SDS011;8350;52.316;10.530;2022-12-18T06:23:06;22.13;;;14.50;;
16478;SDS011;8350;52.316;10.530;2022-12-18T06:25:33;22.08;;;14.50;;
16478;SDS011;8350;52.316;10.530;2022-12-18T06:28:03;21.20;;;14.77;;
16478;SDS011;8350;52.316;10.530;2022-12-18T06:30:30;19.15;;;13.30;;
16478;SDS011;8350;52.316;10.530;2022-12-18T06:32:58;21.02;;;14.18;;
16478;SDS011;8350;52.316;10.530;2022-12-18T06:35:25;20.83;;;13.63;;
16478;SDS011;8350;52.316;10.530;2022-12-18T06:37:52;25.70;;;15.40;;
16478;SDS011;8350;52.316;10.530;2022-12-18T06:40:19;19.55;;;13.43;;
16478;SDS011;8350;52.316;10.530;2022-12-18T06:42:46;24.10;;;17.73;;
16478;SDS011;8350;52.316;10.530;2022-12-18T06:45:14;22.70;;;14.10;;
16478;SDS011;8350;52.316;10.530;2022-12-18T06:47:41;26.33;;;16.90;;
16478;SDS011;8350;52.316;10.530;2022-12-18T06:50:09;25.85;;;18.55;;
16478;SDS011;8350;52.316;10.530;2022-12-18T06:52:37;25.17;;;16.15;;
16478;SDS011;8350;52.316;10.530;2022-12-18T06:55:05;26.23;;;18.55;;
16478;SDS011;8350;52.316;10.530;2022-12-18T06:57:34;26.27;;;17.92;;
16478;SDS011;8350;52.316;10.530;2022-12-18T07:00:01;22.45;;;16.42;;
16478;SDS011;8350;52.316;10.530;2022-12-18T07:02:28;24.20;;;17.45;;
16478;SDS011;8350;52.316;10.530;2022-12-18T07:04:55;26.25;;;17.30;;
16478;SDS011;8350;52.316;10.530;2022-12-18T07:07:24;27.02;;;17.77;;
16478;SDS011;8350;52.316;10.530;2022-12-18T07:09:51;24.80;;;18.67;;
16478;SDS011;8350;52.316;10.530;2022-12-18T07:12:18;23.48;;;16.17;;
16478;SDS011;8350;52.316;10.530;2022-12-18T07:14:45;26.50;;;18.38;;
16478;SDS011;8350;52.316;10.530;2022-12-18T07:17:12;24.88;;;16.77;;
16478;SDS011;8350;52.316;10.530;2022-12-18T07:19:39;23.25;;;17.13;;
16478;SDS011;8350;52.316;10.530;2022-12-18T07:22:07;25.35;;;17.25;;
16478;SDS011;8350;52.316;10.530;2022-12-18T07:24:35;23.83;;;16.65;;
16478;SDS011;8350;52.316;10.530;2022-12-18T07:27:06;23.15;;;16.92;;
16478;SDS011;8350;52.316;10.530;2022-12-18T07:29:33;29.48;;;19.75;;
16478;SDS011;8350;52.316;10.530;2022-12-18T07:32:00;26.65;;;18.42;;
16478;SDS011;8350;52.316;10.530;2022-12-18T07:34:27;25.88;;;17.13;;
16478;SDS011;8350;52.316;10.530;2022-12-18T07:36:54;26.25;;;18.48;;
16478;SDS011;8350;52.316;10.530;2022-12-18T07:39:21;28.23;;;18.10;;
16478;SDS011;8350;52.316;10.530;2022-12-18T07:41:50;31.35;;;18.77;;
16478;SDS011;8350;52.316;10.530;2022-12-18T07:44:30;27.02;;;18.00;;
16478;SDS011;8350;52.316;10.530;2022-12-18T07:46:57;26.30;;;18.42;;
16478;SDS011;8350;52.316;10.530;2022-12-18T07:49:24;28.90;;;19.27;;
16478;SDS011;8350;52.316;10.530;2022-12-18T07:51:53;27.00;;;17.58;;
16478;SDS011;8350;52.316;10.530;2022-12-18T07:54:21;25.73;;;18.45;;
16478;SDS011;8350;52.316;10.530;2022-12-18T07:56:49;25.05;;;17.75;;
16478;SDS011;8350;52.316;10.530;2022-12-18T07:59:17;24.45;;;17.58;;
16478;SDS011;8350;52.316;10.530;2022-12-18T08:01:44;31.15;;;20.70;;
16478;SDS011;8350;52.316;10.530;2022-12-18T08:04:11;27.38;;;18.42;;
16478;SDS011;8350;52.316;10.530;2022-12-18T08:06:38;29.27;;;19.65;;
16478;SDS011;8350;52.316;10.530;2022-12-18T08:09:05;29.17;;;18.83;;
16478;SDS011;8350;52.316;10.530;2022-12-18T08:11:33;27.10;;;20.25;;
16478;SDS011;8350;52.316;10.530;2022-12-18T08:14:02;29.05;;;19.83;;
16478;SDS011;8350;52.316;10.530;2022-12-18T08:16:29;25.10;;;19.15;;
16478;SDS011;8350;52.316;10.530;2022-12-18T08:18:56;28.58;;;19.85;;
16478;SDS011;8350;52.316;10.530;2022-12-18T08:21:24;31.85;;;20.02;;
16478;SDS011;8350;52.316;10.530;2022-12-18T08:23:53;35.67;;;21.08;;
16478;SDS011;8350;52.316;10.530;2022-12-18T08:26:21;31.25;;;20.10;;
16478;SDS011;8350;52.316;10.530;2022-12-18T08:28:51;30.23;;;20.08;;
16478;SDS011;8350;52.316;10.530;2022-12-18T08:31:22;28.42;;;17.48;;
16478;SDS011;8350;52.316;10.530;2022-12-18T08:33:50;32.63;;;20.45;;
16478;SDS011;8350;52.316;10.530;2022-12-18T08:36:18;32.67;;;17.85;;
16478;SDS011;8350;52.316;10.530;2022-12-18T08:38:46;25.83;;;15.75;;
16478;SDS011;8350;52.316;10.530;2022-12-18T08:41:14;25.75;;;14.77;;
16478;SDS011;8350;52.316;10.530;2022-12-18T08:43:42;22.77;;;15.23;;
16478;SDS011;8350;52.316;10.530;2022-12-18T08:46:32;26.17;;;14.63;;
16478;SDS011;8350;52.316;10.530;2022-12-18T08:49:01;26.00;;;15.15;;
16478;SDS011;8350;52.316;10.530;2022-12-18T08:51:29;23.98;;;15.40;;
16478;SDS011;8350;52.316;10.530;2022-12-18T08:53:56;23.95;;;15.27;;
16478;SDS011;8350;52.316;10.530;2022-12-18T08:56:23;27.38;;;14.52;;
16478;SDS011;8350;52.316;10.530;2022-12-18T08:58:51;28.63;;;15.25;;
16478;SDS011;8350;52.316;10.530;2022-12-18T09:01:18;23.73;;;15.70;;
16478;SDS011;8350;52.316;10.530;2022-12-18T09:03:47;28.50;;;16.90;;
16478;SDS011;8350;52.316;10.530;2022-12-18T09:06:15;24.05;;;15.98;;
16478;SDS011;8350;52.316;10.530;2022-12-18T09:08:43;28.48;;;16.45;;
16478;SDS011;8350;52.316;10.530;2022-12-18T09:11:12;23.70;;;14.93;;
16478;SDS011;8350;52.316;10.530;2022-12-18T09:13:40;23.95;;;15.23;;
16478;SDS011;8350;52.316;10.530;2022-12-18T09:16:07;21.08;;;13.88;;
16478;SDS011;8350;52.316;10.530;2022-12-18T09:18:35;21.35;;;12.82;;
16478;SDS011;8350;52.316;10.530;2022-12-18T09:21:08;22.83;;;14.57;;
16478;SDS011;8350;52.316;10.530;2022-12-18T09:23:36;23.17;;;12.95;;
16478;SDS011;8350;52.316;10.530;2022-12-18T09:26:03;19.52;;;13.07;;
16478;SDS011;8350;52.316;10.530;2022-12-18T09:28:30;18.83;;;11.98;;
16478;SDS011;8350;52.316;10.530;2022-12-18T09:30:58;19.10;;;12.15;;
16478;SDS011;8350;52.316;10.530;2022-12-18T09:33:25;17.73;;;12.23;;
16478;SDS011;8350;52.316;10.530;2022-12-18T09:35:52;17.25;;;11.98;;
16478;SDS011;8350;52.316;10.530;2022-12-18T09:38:20;25.50;;;14.27;;
16478;SDS011;8350;52.316;10.530;2022-12-18T09:40:49;20.08;;;13.55;;
16478;SDS011;8350;52.316;10.530;2022-12-18T09:43:19;20.17;;;13.07;;
16478;SDS011;8350;52.316;10.530;2022-12-18T09:45:51;18.60;;;12.07;;
16478;SDS011;8350;52.316;10.530;2022-12-18T09:48:23;17.27;;;12.23;;
16478;SDS011;8350;52.316;10.530;2022-12-18T09:50:57;19.50;;;13.10;;
16478;SDS011;8350;52.316;10.530;2022-12-18T09:53:30;15.43;;;10.68;;
16478;SDS011;8350;52.316;10.530;2022-12-18T09:56:01;17.17;;;12.70;;
16478;SDS011;8350;52.316;10.530;2022-12-18T09:58:30;22.55;;;12.82;;
16478;SDS011;8350;52.316;10.530;2022-12-18T10:01:01;16.60;;;11.77;;
16478;SDS011;8350;52.316;10.530;2022-12-18T10:03:28;19.00;;;13.63;;
16478;SDS011;8350;52.316;10.530;2022-12-18T10:05:58;19.10;;;13.32;;
16478;SDS011;8350;52.316;10.530;2022-12-18T10:08:35;20.15;;;12.85;;
16478;SDS011;8350;52.316;10.530;2022-12-18T10:14:08;18.55;;;12.02;;
16478;SDS011;8350;52.316;10.530;2022-12-18T10:16:42;15.13;;;11.20;;
16478;SDS011;8350;52.316;10.530;2022-12-18T10:19:23;18.55;;;13.75;;
16478;SDS011;8350;52.316;10.530;2022-12-18T10:21:58;19.35;;;12.15;;
16478;SDS011;8350;52.316;10.530;2022-12-18T10:24:37;17.02;;;12.73;;
16478;SDS011;8350;52.316;10.530;2022-12-18T10:27:14;18.27;;;12.82;;
16478;SDS011;8350;52.316;10.530;2022-12-18T10:29:42;20.27;;;14.15;;
16478;SDS011;8350;52.316;10.530;2022-12-18T10:32:13;23.23;;;14.60;;
16478;SDS011;8350;52.316;10.530;2022-12-18T10:34:45;31.38;;;22.55;;
16478;SDS011;8350;52.316;10.530;2022-12-18T10:37:14;28.27;;;18.23;;
16478;SDS011;8350;52.316;10.530;2022-12-18T10:39:45;21.73;;;14.88;;
16478;SDS011;8350;52.316;10.530;2022-12-18T10:42:16;19.15;;;13.13;;
16478;SDS011;8350;52.316;10.530;2022-12-18T10:44:46;20.05;;;11.93;;
16478;SDS011;8350;52.316;10.530;2022-12-18T10:47:28;16.95;;;12.05;;
16478;SDS011;8350;52.316;10.530;2022-12-18T10:49:55;17.60;;;12.02;;
16478;SDS011;8350;52.316;10.530;2022-12-18T10:52:23;20.70;;;12.40;;
16478;SDS011;8350;52.316;10.530;2022-12-18T10:54:57;17.88;;;11.95;;
16478;SDS011;8350;52.316;10.530;2022-12-18T10:57:38;19.73;;;12.20;;
16478;SDS011;8350;52.316;10.530;2022-12-18T11:00:25;18.00;;;13.23;;
16478;SDS011;8350;52.316;10.530;2022-12-18T11:02:54;20.13;;;13.00;;
16478;SDS011;8350;52.316;10.530;2022-12-18T11:05:23;19.20;;;12.07;;
16478;SDS011;8350;52.316;10.530;2022-12-18T11:07:52;20.98;;;12.13;;
16478;SDS011;8350;52.316;10.530;2022-12-18T11:10:22;21.00;;;14.02;;
16478;SDS011;8350;52.316;10.530;2022-12-18T11:12:52;21.70;;;13.40;;
16478;SDS011;8350;52.316;10.530;2022-12-18T11:15:20;18.00;;;11.60;;
16478;SDS011;8350;52.316;10.530;2022-12-18T11:17:50;18.70;;;12.10;;
16478;SDS011;8350;52.316;10.530;2022-12-18T11:20:30;22.38;;;11.63;;
16478;SDS011;8350;52.316;10.530;2022-12-18T11:22:59;20.90;;;12.85;;
16478;SDS011;8350;52.316;10.530;2022-12-18T11:25:29;19.33;;;12.27;;
16478;SDS011;8350;52.316;10.530;2022-12-18T11:27:59;18.33;;;12.75;;
16478;SDS011;8350;52.316;10.530;2022-12-18T11:30:28;17.45;;;13.10;;
16478;SDS011;8350;52.316;10.530;2022-12-18T11:33:06;18.88;;;14.05;;
16478;SDS011;8350;52.316;10.530;2022-12-18T11:35:47;20.27;;;13.98;;
16478;SDS011;8350;52.316;10.530;2022-12-18T11:38:20;21.10;;;12.90;;
16478;SDS011;8350;52.316;10.530;2022-12-18T11:40:58;17.63;;;12.80;;
16478;SDS011;8350;52.316;10.530;2022-12-18T11:43:48;18.48;;;13.13;;
16478;SDS011;8350;52.316;10.530;2022-12-18T11:46:32;18.65;;;12.27;;
16478;SDS011;8350;52.316;10.530;2022-12-18T11:49:06;18.77;;;13.05;;
16478;SDS011;8350;52.316;10.530;2022-12-18T11:51:56;18.92;;;13.40;;
16478;SDS011;8350;52.316;10.530;2022-12-18T11:54:40;18.90;;;13.35;;
16478;SDS011;8350;52.316;10.530;2022-12-18T12:00:11;20.17;;;14.60;;
16478;SDS011;8350;52.316;10.530;2022-12-18T12:06:05;22.27;;;14.13;;
16478;SDS011;8350;52.316;10.530;2022-12-18T12:11:48;19.60;;;13.52;;
16478;SDS011;8350;52.316;10.530;2022-12-18T12:14:44;19.92;;;13.82;;
16478;SDS011;8350;52.316;10.530;2022-12-18T12:17:37;17.05;;;13.55;;
16478;SDS011;8350;52.316;10.530;2022-12-18T12:20:29;19.88;;;14.63;;
16478;SDS011;8350;52.316;10.530;2022-12-18T12:23:17;19.83;;;14.23;;
16478;SDS011;8350;52.316;10.530;2022-12-18T12:26:01;19.88;;;15.15;;
16478;SDS011;8350;52.316;10.530;2022-12-18T12:29:36;18.05;;;12.73;;
16478;SDS011;8350;52.316;10.530;2022-12-18T12:35:45;16.77;;;11.98;;
16478;SDS011;8350;52.316;10.530;2022-12-18T12:38:24;18.08;;;13.32;;
16478;SDS011;8350;52.316;10.530;2022-12-18T12:40:58;18.25;;;13.52;;
16478;SDS011;8350;52.316;10.530;2022-12-18T12:43:32;20.02;;;13.63;;
16478;SDS011;8350;52.316;10.530;2022-12-18T12:46:08;19.17;;;12.35;;
16478;SDS011;8350;52.316;10.530;2022-12-18T12:48:43;16.42;;;13.43;;
16478;SDS011;8350;52.316;10.530;2022-12-18T12:51:32;18.27;;;12.85;;
16478;SDS011;8350;52.316;10.530;2022-12-18T12:54:27;18.13;;;13.23;;
16478;SDS011;8350;52.316;10.530;2022-12-18T12:57:02;20.27;;;14.00;;
16478;SDS011;8350;52.316;10.530;2022-12-18T12:59:55;15.93;;;11.88;;
16478;SDS011;8350;52.316;10.530;2022-12-18T13:02:35;15.77;;;13.30;;
16478;SDS011;8350;52.316;10.530;2022-12-18T13:05:23;18.00;;;13.07;;
16478;SDS011;8350;52.316;10.530;2022-12-18T13:08:04;13.93;;;11.75;;
16478;SDS011;8350;52.316;10.530;2022-12-18T13:10:34;17.20;;;12.13;;
16478;SDS011;8350;52.316;10.530;2022-12-18T13:13:15;17.00;;;11.98;;
16478;SDS011;8350;52.316;10.530;2022-12-18T13:15:47;18.48;;;12.05;;
16478;SDS011;8350;52.316;10.530;2022-12-18T13:18:43;19.10;;;11.45;;
16478;SDS011;8350;52.316;10.530;2022-12-18T13:21:28;17.67;;;12.63;;
16478;SDS011;8350;52.316;10.530;2022-12-18T13:24:20;16.23;;;13.38;;
16478;SDS011;8350;52.316;10.530;2022-12-18T13:26:57;15.85;;;11.40;;
16478;SDS011;8350;52.316;10.530;2022-12-18T13:29:40;13.80;;;10.65;;
16478;SDS011;8350;52.316;10.530;2022-12-18T13:32:19;15.07;;;10.82;;
16478;SDS011;8350;52.316;10.530;2022-12-18T13:34:48;17.00;;;12.32;;
16478;SDS011;8350;52.316;10.530;2022-12-18T13:43:25;13.90;;;10.57;;
16478;SDS011;8350;52.316;10.530;2022-12-18T13:45:59;14.93;;;10.60;;
16478;SDS011;8350;52.316;10.530;2022-12-18T13:48:33;14.20;;;10.00;;
16478;SDS011;8350;52.316;10.530;2022-12-18T13:51:05;14.05;;;10.05;;
16478;SDS011;8350;52.316;10.530;2022-12-18T13:53:36;15.63;;;10.88;;
16478;SDS011;8350;52.316;10.530;2022-12-18T13:56:08;14.43;;;9.95;;
16478;SDS011;8350;52.316;10.530;2022-12-18T13:58:35;14.65;;;11.35;;
16478;SDS011;8350;52.316;10.530;2022-12-18T14:01:04;13.90;;;11.13;;
16478;SDS011;8350;52.316;10.530;2022-12-18T14:03:31;13.55;;;10.80;;
16478;SDS011;8350;52.316;10.530;2022-12-18T14:06:02;14.63;;;12.07;;
16478;SDS011;8350;52.316;10.530;2022-12-18T14:08:35;14.57;;;10.77;;
16478;SDS011;8350;52.316;10.530;2022-12-18T14:11:07;14.45;;;11.73;;
16478;SDS011;8350;52.316;10.530;2022-12-18T14:13:45;14.93;;;11.40;;
16478;SDS011;8350;52.316;10.530;2022-12-18T14:16:14;14.68;;;11.10;;
16478;SDS011;8350;52.316;10.530;2022-12-18T14:18:44;16.63;;;11.32;;
16478;SDS011;8350;52.316;10.530;2022-12-18T14:21:21;17.08;;;11.70;;
16478;SDS011;8350;52.316;10.530;2022-12-18T14:24:02;14.90;;;9.95;;
16478;SDS011;8350;52.316;10.530;2022-12-18T14:26:31;15.65;;;10.98;;
16478;SDS011;8350;52.316;10.530;2022-12-18T14:28:59;12.60;;;9.35;;
16478;SDS011;8350;52.316;10.530;2022-12-18T14:31:28;12.80;;;10.38;;
16478;SDS011;8350;52.316;10.530;2022-12-18T14:33:56;13.93;;;9.38;;
16478;SDS011;8350;52.316;10.530;2022-12-18T14:36:25;16.65;;;12.15;;
16478;SDS011;8350;52.316;10.530;2022-12-18T14:38:54;15.60;;;11.90;;
16478;SDS011;8350;52.316;10.530;2022-12-18T14:41:24;16.90;;;13.05;;
16478;SDS011;8350;52.316;10.530;2022-12-18T14:43:53;16.17;;;12.10;;
16478;SDS011;8350;52.316;10.530;2022-12-18T14:46:29;15.95;;;12.13;;
16478;SDS011;8350;52.316;10.530;2022-12-18T14:49:00;16.08;;;12.25;;
16478;SDS011;8350;52.316;10.530;2022-12-18T14:51:31;14.32;;;10.57;;
16478;SDS011;8350;52.316;10.530;2022-12-18T14:53:59;13.88;;;11.20;;
16478;SDS011;8350;52.316;10.530;2022-12-18T14:56:30;17.05;;;11.98;;
16478;SDS011;8350;52.316;10.530;2022-12-18T14:58:59;13.30;;;11.15;;
16478;SDS011;8350;52.316;10.530;2022-12-18T15:01:28;17.77;;;12.15;;
16478;SDS011;8350;52.316;10.530;2022-12-18T15:03:57;13.82;;;10.68;;
16478;SDS011;8350;52.316;10.530;2022-12-18T15:06:27;15.35;;;11.10;;
16478;SDS011;8350;52.316;10.530;2022-12-18T15:09:01;17.90;;;12.55;;